sensor_id;sensor_type;location;lat;lon;timestamp;P1;durP1;ratioP1;P2;durP2;ratioP2
74293;SDS011;64044;59.904;10.738;2022-12-18T00:01:50;58.25;;;22.63;;
74293;SDS011;64044;59.904;10.738;2022-12-18T00:04:22;60.63;;;21.98;;
74293;SDS011;64044;59.904;10.738;2022-12-18T00:06:49;57.45;;;23.52;;
74293;SDS011;64044;59.904;10.738;2022-12-18T00:09:15;66.50;;;22.98;;
74293;SDS011;64044;59.904;10.738;2022-12-18T00:11:41;62.88;;;23.40;;
74293;SDS011;64044;59.904;10.738;2022-12-18T00:14:08;65.80;;;23.83;;
74293;SDS011;64044;59.904;10.738;2022-12-18T00:16:35;58.58;;;22.88;;
74293;SDS011;64044;59.904;10.738;2022-12-18T00:19:02;59.28;;;23.80;;
74293;SDS011;64044;59.904;10.738;2022-12-18T00:21:29;60.38;;;23.40;;
74293;SDS011;64044;59.904;10.738;2022-12-18T00:23:56;59.63;;;24.48;;
74293;SDS011;64044;59.904;10.738;2022-12-18T00:26:24;73.63;;;25.13;;
74293;SDS011;64044;59.904;10.738;2022-12-18T00:28:54;64.75;;;23.40;;
74293;SDS011;64044;59.904;10.738;2022-12-18T00:31:23;66.78;;;25.67;;
74293;SDS011;64044;59.904;10.738;2022-12-18T00:33:49;70.05;;;24.88;;
74293;SDS011;64044;59.904;10.738;2022-12-18T00:36:16;71.20;;;26.50;;
74293;SDS011;64044;59.904;10.738;2022-12-18T00:38:44;68.45;;;24.02;;
74293;SDS011;64044;59.904;10.738;2022-12-18T00:41:11;60.63;;;24.02;;
74293;SDS011;64044;59.904;10.738;2022-12-18T00:43:37;56.83;;;23.08;;
74293;SDS011;64044;59.904;10.738;2022-12-18T00:46:03;60.47;;;22.02;;
74293;SDS011;64044;59.904;10.738;2022-12-18T00:48:30;64.45;;;24.83;;
74293;SDS011;64044;59.904;10.738;2022-12-18T00:50:56;64.63;;;24.42;;
74293;SDS011;64044;59.904;10.738;2022-12-18T00:53:21;65.22;;;24.90;;
74293;SDS011;64044;59.904;10.738;2022-12-18T00:55:47;77.53;;;24.50;;
74293;SDS011;64044;59.904;10.738;2022-12-18T00:58:13;68.68;;;24.08;;
74293;SDS011;64044;59.904;10.738;2022-12-18T01:00:40;63.42;;;24.10;;
74293;SDS011;64044;59.904;10.738;2022-12-18T01:03:06;79.13;;;25.80;;
74293;SDS011;64044;59.904;10.738;2022-12-18T01:05:32;65.45;;;25.60;;
74293;SDS011;64044;59.904;10.738;2022-12-18T01:07:58;73.53;;;27.00;;
74293;SDS011;64044;59.904;10.738;2022-12-18T01:10:24;65.28;;;22.98;;
74293;SDS011;64044;59.904;10.738;2022-12-18T01:12:50;63.75;;;23.38;;
74293;SDS011;64044;59.904;10.738;2022-12-18T01:15:16;70.40;;;23.65;;
74293;SDS011;64044;59.904;10.738;2022-12-18T01:17:42;79.13;;;24.92;;
74293;SDS011;64044;59.904;10.738;2022-12-18T01:20:08;65.55;;;23.73;;
74293;SDS011;64044;59.904;10.738;2022-12-18T01:22:35;64.60;;;23.02;;
74293;SDS011;64044;59.904;10.738;2022-12-18T01:25:02;72.03;;;26.92;;
74293;SDS011;64044;59.904;10.738;2022-12-18T01:27:29;73.45;;;25.30;;
74293;SDS011;64044;59.904;10.738;2022-12-18T01:29:55;75.28;;;25.77;;
74293;SDS011;64044;59.904;10.738;2022-12-18T01:32:20;67.32;;;23.58;;
74293;SDS011;64044;59.904;10.738;2022-12-18T01:34:46;62.45;;;23.55;;
74293;SDS011;64044;59.904;10.738;2022-12-18T01:37:12;65.35;;;23.15;;
74293;SDS011;64044;59.904;10.738;2022-12-18T01:39:38;66.10;;;23.60;;
74293;SDS011;64044;59.904;10.738;2022-12-18T01:42:05;61.83;;;22.63;;
74293;SDS011;64044;59.904;10.738;2022-12-18T01:50:06;53.80;;;21.27;;
74293;SDS011;64044;59.904;10.738;2022-12-18T01:52:35;54.30;;;21.95;;
74293;SDS011;64044;59.904;10.738;2022-12-18T01:55:02;54.45;;;21.23;;
74293;SDS011;64044;59.904;10.738;2022-12-18T01:57:30;61.10;;;22.70;;
74293;SDS011;64044;59.904;10.738;2022-12-18T01:59:59;61.75;;;22.40;;
74293;SDS011;64044;59.904;10.738;2022-12-18T02:02:26;59.67;;;20.35;;
74293;SDS011;64044;59.904;10.738;2022-12-18T02:04:54;57.20;;;20.75;;
74293;SDS011;64044;59.904;10.738;2022-12-18T02:07:24;39.05;;;18.05;;
74293;SDS011;64044;59.904;10.738;2022-12-18T02:15:31;46.03;;;18.23;;
74293;SDS011;64044;59.904;10.738;2022-12-18T02:20:48;51.13;;;16.25;;
74293;SDS011;64044;59.904;10.738;2022-12-18T02:31:47;45.08;;;16.20;;
74293;SDS011;64044;59.904;10.738;2022-12-18T02:34:16;48.58;;;17.38;;
74293;SDS011;64044;59.904;10.738;2022-12-18T02:36:43;52.28;;;15.68;;
74293;SDS011;64044;59.904;10.738;2022-12-18T02:42:02;38.72;;;15.30;;
74293;SDS011;64044;59.904;10.738;2022-12-18T02:44:33;52.28;;;16.35;;
74293;SDS011;64044;59.904;10.738;2022-12-18T02:47:10;38.65;;;14.70;;
74293;SDS011;64044;59.904;10.738;2022-12-18T02:55:31;40.58;;;15.60;;
74293;SDS011;64044;59.904;10.738;2022-12-18T03:01:11;46.92;;;17.02;;
74293;SDS011;64044;59.904;10.738;2022-12-18T03:04:04;36.05;;;13.52;;
74293;SDS011;64044;59.904;10.738;2022-12-18T03:06:47;41.25;;;14.48;;
74293;SDS011;64044;59.904;10.738;2022-12-18T03:09:18;34.28;;;12.50;;
74293;SDS011;64044;59.904;10.738;2022-12-18T03:11:58;39.00;;;13.65;;
74293;SDS011;64044;59.904;10.738;2022-12-18T03:14:55;34.35;;;12.82;;
74293;SDS011;64044;59.904;10.738;2022-12-18T03:17:35;37.25;;;14.02;;
74293;SDS011;64044;59.904;10.738;2022-12-18T03:20:08;41.33;;;15.68;;
74293;SDS011;64044;59.904;10.738;2022-12-18T03:22:43;44.45;;;13.57;;
74293;SDS011;64044;59.904;10.738;2022-12-18T03:25:13;50.97;;;14.97;;
74293;SDS011;64044;59.904;10.738;2022-12-18T03:27:42;37.95;;;13.35;;
74293;SDS011;64044;59.904;10.738;2022-12-18T03:32:43;40.70;;;14.77;;
74293;SDS011;64044;59.904;10.738;2022-12-18T03:35:30;36.15;;;13.63;;
74293;SDS011;64044;59.904;10.738;2022-12-18T03:37:59;37.38;;;12.40;;
74293;SDS011;64044;59.904;10.738;2022-12-18T03:40:35;34.85;;;13.30;;
74293;SDS011;64044;59.904;10.738;2022-12-18T03:43:13;42.50;;;13.13;;
74293;SDS011;64044;59.904;10.738;2022-12-18T03:45:51;44.28;;;18.20;;
74293;SDS011;64044;59.904;10.738;2022-12-18T03:48:34;60.20;;;21.48;;
74293;SDS011;64044;59.904;10.738;2022-12-18T03:51:24;62.33;;;20.50;;
74293;SDS011;64044;59.904;10.738;2022-12-18T03:54:01;55.92;;;20.38;;
74293;SDS011;64044;59.904;10.738;2022-12-18T03:56:29;53.25;;;21.25;;
74293;SDS011;64044;59.904;10.738;2022-12-18T03:58:58;56.35;;;19.67;;
74293;SDS011;64044;59.904;10.738;2022-12-18T04:01:49;50.72;;;20.33;;
74293;SDS011;64044;59.904;10.738;2022-12-18T04:04:14;44.42;;;19.75;;
74293;SDS011;64044;59.904;10.738;2022-12-18T04:06:41;48.55;;;19.48;;
74293;SDS011;64044;59.904;10.738;2022-12-18T04:09:08;55.10;;;20.23;;
74293;SDS011;64044;59.904;10.738;2022-12-18T04:11:34;56.53;;;19.80;;
74293;SDS011;64044;59.904;10.738;2022-12-18T04:14:00;42.83;;;18.27;;
74293;SDS011;64044;59.904;10.738;2022-12-18T04:16:26;48.55;;;18.83;;
74293;SDS011;64044;59.904;10.738;2022-12-18T04:18:52;42.47;;;18.20;;
74293;SDS011;64044;59.904;10.738;2022-12-18T04:21:18;47.70;;;17.73;;
74293;SDS011;64044;59.904;10.738;2022-12-18T04:23:44;50.22;;;19.08;;
74293;SDS011;64044;59.904;10.738;2022-12-18T04:26:10;44.65;;;18.08;;
74293;SDS011;64044;59.904;10.738;2022-12-18T04:28:36;40.25;;;17.50;;
74293;SDS011;64044;59.904;10.738;2022-12-18T04:31:01;47.35;;;17.77;;
74293;SDS011;64044;59.904;10.738;2022-12-18T04:33:28;43.05;;;17.67;;
74293;SDS011;64044;59.904;10.738;2022-12-18T04:35:54;39.33;;;16.50;;
74293;SDS011;64044;59.904;10.738;2022-12-18T04:38:20;47.90;;;18.38;;
74293;SDS011;64044;59.904;10.738;2022-12-18T04:40:45;49.33;;;18.00;;
74293;SDS011;64044;59.904;10.738;2022-12-18T04:43:11;44.05;;;17.35;;
74293;SDS011;64044;59.904;10.738;2022-12-18T04:45:36;40.38;;;17.75;;
74293;SDS011;64044;59.904;10.738;2022-12-18T04:48:02;46.67;;;15.77;;
74293;SDS011;64044;59.904;10.738;2022-12-18T04:50:29;38.88;;;15.45;;
74293;SDS011;64044;59.904;10.738;2022-12-18T04:52:55;42.67;;;16.77;;
74293;SDS011;64044;59.904;10.738;2022-12-18T04:55:21;51.47;;;17.88;;
74293;SDS011;64044;59.904;10.738;2022-12-18T04:57:46;56.38;;;18.20;;
74293;SDS011;64044;59.904;10.738;2022-12-18T05:00:12;43.53;;;17.42;;
74293;SDS011;64044;59.904;10.738;2022-12-18T05:02:38;41.78;;;17.10;;
74293;SDS011;64044;59.904;10.738;2022-12-18T05:05:04;36.42;;;17.20;;
74293;SDS011;64044;59.904;10.738;2022-12-18T05:07:31;41.10;;;17.25;;
74293;SDS011;64044;59.904;10.738;2022-12-18T05:09:57;37.35;;;15.50;;
74293;SDS011;64044;59.904;10.738;2022-12-18T05:12:22;40.65;;;16.77;;
74293;SDS011;64044;59.904;10.738;2022-12-18T05:14:48;52.55;;;18.83;;
74293;SDS011;64044;59.904;10.738;2022-12-18T05:17:13;43.55;;;17.83;;
74293;SDS011;64044;59.904;10.738;2022-12-18T05:19:39;45.35;;;18.33;;
74293;SDS011;64044;59.904;10.738;2022-12-18T05:22:05;40.97;;;16.55;;
74293;SDS011;64044;59.904;10.738;2022-12-18T05:24:30;35.55;;;15.60;;
74293;SDS011;64044;59.904;10.738;2022-12-18T05:26:56;33.28;;;14.07;;
74293;SDS011;64044;59.904;10.738;2022-12-18T05:29:22;37.13;;;14.88;;
74293;SDS011;64044;59.904;10.738;2022-12-18T05:31:47;30.52;;;12.90;;
74293;SDS011;64044;59.904;10.738;2022-12-18T05:34:13;32.22;;;12.63;;
74293;SDS011;64044;59.904;10.738;2022-12-18T05:36:38;33.67;;;14.88;;
74293;SDS011;64044;59.904;10.738;2022-12-18T05:39:04;38.90;;;16.02;;
74293;SDS011;64044;59.904;10.738;2022-12-18T05:41:30;39.67;;;15.73;;
74293;SDS011;64044;59.904;10.738;2022-12-18T05:43:55;38.83;;;14.90;;
74293;SDS011;64044;59.904;10.738;2022-12-18T05:46:21;30.52;;;14.50;;
74293;SDS011;64044;59.904;10.738;2022-12-18T05:48:47;35.88;;;15.50;;
74293;SDS011;64044;59.904;10.738;2022-12-18T05:51:15;35.13;;;14.95;;
74293;SDS011;64044;59.904;10.738;2022-12-18T05:53:43;30.98;;;14.30;;
74293;SDS011;64044;59.904;10.738;2022-12-18T05:56:12;38.85;;;14.88;;
74293;SDS011;64044;59.904;10.738;2022-12-18T06:01:11;35.88;;;13.65;;
74293;SDS011;64044;59.904;10.738;2022-12-18T06:03:37;38.58;;;13.98;;
74293;SDS011;64044;59.904;10.738;2022-12-18T06:06:03;37.75;;;15.57;;
74293;SDS011;64044;59.904;10.738;2022-12-18T06:08:28;35.17;;;15.18;;
74293;SDS011;64044;59.904;10.738;2022-12-18T06:10:54;48.83;;;18.15;;
74293;SDS011;64044;59.904;10.738;2022-12-18T06:13:20;36.58;;;15.15;;
74293;SDS011;64044;59.904;10.738;2022-12-18T06:15:46;37.78;;;15.10;;
74293;SDS011;64044;59.904;10.738;2022-12-18T06:18:11;39.63;;;15.27;;
74293;SDS011;64044;59.904;10.738;2022-12-18T06:20:37;34.95;;;15.25;;
74293;SDS011;64044;59.904;10.738;2022-12-18T06:23:04;38.55;;;14.43;;
74293;SDS011;64044;59.904;10.738;2022-12-18T06:25:30;38.80;;;14.98;;
74293;SDS011;64044;59.904;10.738;2022-12-18T06:27:56;33.47;;;15.20;;
74293;SDS011;64044;59.904;10.738;2022-12-18T06:30:22;40.38;;;16.08;;
74293;SDS011;64044;59.904;10.738;2022-12-18T06:32:48;43.20;;;15.63;;
74293;SDS011;64044;59.904;10.738;2022-12-18T06:35:14;35.17;;;15.68;;
74293;SDS011;64044;59.904;10.738;2022-12-18T06:37:40;33.58;;;14.73;;
74293;SDS011;64044;59.904;10.738;2022-12-18T06:40:06;33.35;;;14.20;;
74293;SDS011;64044;59.904;10.738;2022-12-18T06:42:32;32.75;;;14.25;;
74293;SDS011;64044;59.904;10.738;2022-12-18T06:44:57;30.23;;;13.68;;
74293;SDS011;64044;59.904;10.738;2022-12-18T06:47:23;29.13;;;13.13;;
74293;SDS011;64044;59.904;10.738;2022-12-18T06:49:49;38.67;;;14.77;;
74293;SDS011;64044;59.904;10.738;2022-12-18T06:52:14;38.45;;;14.40;;
74293;SDS011;64044;59.904;10.738;2022-12-18T06:54:40;32.65;;;14.23;;
74293;SDS011;64044;59.904;10.738;2022-12-18T06:57:05;34.13;;;14.35;;
74293;SDS011;64044;59.904;10.738;2022-12-18T06:59:31;26.33;;;12.85;;
74293;SDS011;64044;59.904;10.738;2022-12-18T07:01:57;32.85;;;14.52;;
74293;SDS011;64044;59.904;10.738;2022-12-18T07:04:26;32.78;;;13.38;;
74293;SDS011;64044;59.904;10.738;2022-12-18T07:09:19;23.98;;;10.50;;
74293;SDS011;64044;59.904;10.738;2022-12-18T07:11:44;26.27;;;12.05;;
74293;SDS011;64044;59.904;10.738;2022-12-18T07:14:10;26.70;;;12.30;;
74293;SDS011;64044;59.904;10.738;2022-12-18T07:16:35;26.42;;;11.07;;
74293;SDS011;64044;59.904;10.738;2022-12-18T07:19:01;25.27;;;11.50;;
74293;SDS011;64044;59.904;10.738;2022-12-18T07:21:27;26.30;;;9.63;;
74293;SDS011;64044;59.904;10.738;2022-12-18T07:23:52;21.60;;;9.60;;
74293;SDS011;64044;59.904;10.738;2022-12-18T07:26:19;22.85;;;9.18;;
74293;SDS011;64044;59.904;10.738;2022-12-18T07:28:45;57.65;;;22.40;;
74293;SDS011;64044;59.904;10.738;2022-12-18T07:31:13;54.10;;;18.52;;
74293;SDS011;64044;59.904;10.738;2022-12-18T07:33:44;36.60;;;14.10;;
74293;SDS011;64044;59.904;10.738;2022-12-18T07:36:10;40.00;;;15.05;;
74293;SDS011;64044;59.904;10.738;2022-12-18T07:38:36;39.72;;;17.20;;
74293;SDS011;64044;59.904;10.738;2022-12-18T07:41:03;39.45;;;15.85;;
74293;SDS011;64044;59.904;10.738;2022-12-18T07:43:30;29.15;;;12.40;;
74293;SDS011;64044;59.904;10.738;2022-12-18T07:45:56;28.88;;;12.00;;
74293;SDS011;64044;59.904;10.738;2022-12-18T07:48:21;24.80;;;11.93;;
74293;SDS011;64044;59.904;10.738;2022-12-18T07:50:47;25.67;;;11.23;;
74293;SDS011;64044;59.904;10.738;2022-12-18T07:53:13;23.33;;;9.85;;
74293;SDS011;64044;59.904;10.738;2022-12-18T07:55:39;27.25;;;9.95;;
74293;SDS011;64044;59.904;10.738;2022-12-18T07:58:06;25.90;;;9.30;;
74293;SDS011;64044;59.904;10.738;2022-12-18T08:00:32;22.05;;;8.77;;
74293;SDS011;64044;59.904;10.738;2022-12-18T08:02:58;19.10;;;8.50;;
74293;SDS011;64044;59.904;10.738;2022-12-18T08:05:24;26.05;;;9.27;;
74293;SDS011;64044;59.904;10.738;2022-12-18T08:07:50;22.05;;;9.18;;
74293;SDS011;64044;59.904;10.738;2022-12-18T08:10:16;21.67;;;9.00;;
74293;SDS011;64044;59.904;10.738;2022-12-18T08:12:42;16.25;;;7.15;;
74293;SDS011;64044;59.904;10.738;2022-12-18T08:15:07;19.55;;;8.73;;
74293;SDS011;64044;59.904;10.738;2022-12-18T08:17:33;22.10;;;7.80;;
74293;SDS011;64044;59.904;10.738;2022-12-18T08:19:59;16.95;;;7.50;;
74293;SDS011;64044;59.904;10.738;2022-12-18T08:22:25;16.85;;;6.47;;
74293;SDS011;64044;59.904;10.738;2022-12-18T08:24:50;14.82;;;6.00;;
74293;SDS011;64044;59.904;10.738;2022-12-18T08:27:16;13.48;;;7.18;;
74293;SDS011;64044;59.904;10.738;2022-12-18T08:29:42;10.65;;;5.35;;
74293;SDS011;64044;59.904;10.738;2022-12-18T08:32:08;12.93;;;5.20;;
74293;SDS011;64044;59.904;10.738;2022-12-18T08:34:33;14.18;;;5.18;;
74293;SDS011;64044;59.904;10.738;2022-12-18T08:36:59;13.63;;;5.50;;
74293;SDS011;64044;59.904;10.738;2022-12-18T08:39:24;10.80;;;5.10;;
74293;SDS011;64044;59.904;10.738;2022-12-18T08:42:16;12.50;;;4.47;;
74293;SDS011;64044;59.904;10.738;2022-12-18T08:45:00;12.15;;;4.00;;
74293;SDS011;64044;59.904;10.738;2022-12-18T08:47:26;14.93;;;5.53;;
74293;SDS011;64044;59.904;10.738;2022-12-18T08:49:53;13.20;;;4.25;;
74293;SDS011;64044;59.904;10.738;2022-12-18T08:52:18;6.55;;;2.65;;
74293;SDS011;64044;59.904;10.738;2022-12-18T08:54:44;5.78;;;1.65;;
74293;SDS011;64044;59.904;10.738;2022-12-18T08:57:09;3.13;;;1.50;;
74293;SDS011;64044;59.904;10.738;2022-12-18T08:59:35;6.43;;;1.23;;
74293;SDS011;64044;59.904;10.738;2022-12-18T09:02:00;4.22;;;1.15;;
74293;SDS011;64044;59.904;10.738;2022-12-18T09:04:26;3.83;;;1.00;;
74293;SDS011;64044;59.904;10.738;2022-12-18T09:06:52;2.75;;;1.45;;
74293;SDS011;64044;59.904;10.738;2022-12-18T09:09:20;6.45;;;1.23;;
74293;SDS011;64044;59.904;10.738;2022-12-18T09:11:46;7.07;;;1.50;;
74293;SDS011;64044;59.904;10.738;2022-12-18T09:14:11;6.85;;;1.33;;
74293;SDS011;64044;59.904;10.738;2022-12-18T09:16:37;2.72;;;1.10;;
74293;SDS011;64044;59.904;10.738;2022-12-18T09:19:03;6.82;;;1.20;;
74293;SDS011;64044;59.904;10.738;2022-12-18T09:21:31;2.83;;;1.65;;
74293;SDS011;64044;59.904;10.738;2022-12-18T09:23:59;4.68;;;1.10;;
74293;SDS011;64044;59.904;10.738;2022-12-18T09:26:25;4.03;;;1.10;;
74293;SDS011;64044;59.904;10.738;2022-12-18T09:28:51;5.90;;;1.40;;
74293;SDS011;64044;59.904;10.738;2022-12-18T09:31:18;7.32;;;1.10;;
74293;SDS011;64044;59.904;10.738;2022-12-18T09:33:45;3.60;;;1.10;;
74293;SDS011;64044;59.904;10.738;2022-12-18T09:36:11;2.70;;;1.00;;
74293;SDS011;64044;59.904;10.738;2022-12-18T09:38:39;4.95;;;0.93;;
74293;SDS011;64044;59.904;10.738;2022-12-18T09:41:51;3.35;;;1.10;;
74293;SDS011;64044;59.904;10.738;2022-12-18T09:47:17;2.50;;;0.90;;
74293;SDS011;64044;59.904;10.738;2022-12-18T09:50:32;1.40;;;0.60;;
74293;SDS011;64044;59.904;10.738;2022-12-18T09:52:49;4.10;;;0.80;;
74293;SDS011;64044;59.904;10.738;2022-12-18T09:58:12;2.28;;;0.80;;
74293;SDS011;64044;59.904;10.738;2022-12-18T10:00:57;4.03;;;0.77;;
74293;SDS011;64044;59.904;10.738;2022-12-18T10:03:23;4.20;;;0.82;;
74293;SDS011;64044;59.904;10.738;2022-12-18T10:05:59;4.30;;;1.38;;
74293;SDS011;64044;59.904;10.738;2022-12-18T10:16:24;3.95;;;1.45;;
74293;SDS011;64044;59.904;10.738;2022-12-18T10:21:55;4.28;;;1.92;;
74293;SDS011;64044;59.904;10.738;2022-12-18T10:27:21;5.45;;;3.40;;
74293;SDS011;64044;59.904;10.738;2022-12-18T10:29:49;10.18;;;3.95;;
74293;SDS011;64044;59.904;10.738;2022-12-18T10:32:20;6.90;;;3.65;;
74293;SDS011;64044;59.904;10.738;2022-12-18T10:34:51;7.85;;;3.70;;
74293;SDS011;64044;59.904;10.738;2022-12-18T10:37:19;6.43;;;3.47;;
74293;SDS011;64044;59.904;10.738;2022-12-18T10:42:37;8.98;;;3.47;;
74293;SDS011;64044;59.904;10.738;2022-12-18T10:45:08;9.90;;;4.03;;
74293;SDS011;64044;59.904;10.738;2022-12-18T10:47:36;6.75;;;3.53;;
74293;SDS011;64044;59.904;10.738;2022-12-18T10:50:17;10.88;;;3.75;;
74293;SDS011;64044;59.904;10.738;2022-12-18T10:53:04;5.40;;;3.08;;
74293;SDS011;64044;59.904;10.738;2022-12-18T10:55:34;6.88;;;2.95;;
74293;SDS011;64044;59.904;10.738;2022-12-18T11:08:30;5.68;;;2.65;;
74293;SDS011;64044;59.904;10.738;2022-12-18T11:10:56;7.10;;;3.60;;
74293;SDS011;64044;59.904;10.738;2022-12-18T11:13:25;6.07;;;2.63;;
74293;SDS011;64044;59.904;10.738;2022-12-18T11:15:53;5.50;;;2.25;;
74293;SDS011;64044;59.904;10.738;2022-12-18T11:18:29;5.10;;;2.05;;
74293;SDS011;64044;59.904;10.738;2022-12-18T11:23:36;4.05;;;1.80;;
74293;SDS011;64044;59.904;10.738;2022-12-18T11:26:10;5.75;;;1.20;;
74293;SDS011;64044;59.904;10.738;2022-12-18T11:31:20;2.90;;;1.23;;
74293;SDS011;64044;59.904;10.738;2022-12-18T11:34:33;4.05;;;1.67;;
74293;SDS011;64044;59.904;10.738;2022-12-18T11:36:53;4.88;;;1.88;;
74293;SDS011;64044;59.904;10.738;2022-12-18T11:41:55;2.67;;;1.20;;
74293;SDS011;64044;59.904;10.738;2022-12-18T11:44:41;2.97;;;1.40;;
74293;SDS011;64044;59.904;10.738;2022-12-18T11:47:21;5.25;;;1.58;;
74293;SDS011;64044;59.904;10.738;2022-12-18T11:49:55;4.32;;;1.27;;
74293;SDS011;64044;59.904;10.738;2022-12-18T11:55:01;3.22;;;1.00;;
74293;SDS011;64044;59.904;10.738;2022-12-18T11:57:41;1.75;;;0.52;;
74293;SDS011;64044;59.904;10.738;2022-12-18T12:00:12;2.53;;;0.90;;
74293;SDS011;64044;59.904;10.738;2022-12-18T12:35:35;3.53;;;1.73;;
74293;SDS011;64044;59.904;10.738;2022-12-18T12:38:16;2.70;;;1.70;;
74293;SDS011;64044;59.904;10.738;2022-12-18T12:43:57;3.90;;;1.80;;
74293;SDS011;64044;59.904;10.738;2022-12-18T12:46:26;4.72;;;1.75;;
74293;SDS011;64044;59.904;10.738;2022-12-18T12:48:55;2.85;;;1.42;;
74293;SDS011;64044;59.904;10.738;2022-12-18T12:53:54;5.05;;;1.73;;
74293;SDS011;64044;59.904;10.738;2022-12-18T12:56:22;2.92;;;1.30;;
74293;SDS011;64044;59.904;10.738;2022-12-18T13:01:53;2.58;;;1.30;;
74293;SDS011;64044;59.904;10.738;2022-12-18T13:10:24;4.97;;;1.55;;
74293;SDS011;64044;59.904;10.738;2022-12-18T13:32:16;7.15;;;2.80;;
74293;SDS011;64044;59.904;10.738;2022-12-18T13:34:24;4.95;;;2.33;;
74293;SDS011;64044;59.904;10.738;2022-12-18T13:36:51;3.30;;;1.70;;
74293;SDS011;64044;59.904;10.738;2022-12-18T13:41:44;4.07;;;1.85;;
74293;SDS011;64044;59.904;10.738;2022-12-18T13:51:39;4.32;;;1.95;;
74293;SDS011;64044;59.904;10.738;2022-12-18T13:56:51;9.60;;;2.28;;
74293;SDS011;64044;59.904;10.738;2022-12-18T14:01:47;4.75;;;2.53;;
74293;SDS011;64044;59.904;10.738;2022-12-18T14:04:27;3.45;;;2.17;;
74293;SDS011;64044;59.904;10.738;2022-12-18T14:07:16;2.92;;;1.65;;
74293;SDS011;64044;59.904;10.738;2022-12-18T14:09:58;5.40;;;2.55;;
74293;SDS011;64044;59.904;10.738;2022-12-18T14:12:27;9.32;;;3.95;;
74293;SDS011;64044;59.904;10.738;2022-12-18T14:17:47;14.90;;;6.22;;
74293;SDS011;64044;59.904;10.738;2022-12-18T14:20:15;10.90;;;4.60;;
74293;SDS011;64044;59.904;10.738;2022-12-18T14:22:45;7.65;;;3.28;;
74293;SDS011;64044;59.904;10.738;2022-12-18T14:25:17;11.15;;;3.28;;
74293;SDS011;64044;59.904;10.738;2022-12-18T14:27:50;5.25;;;2.75;;
74293;SDS011;64044;59.904;10.738;2022-12-18T14:35:37;9.38;;;4.40;;
74293;SDS011;64044;59.904;10.738;2022-12-18T14:40:42;12.48;;;5.93;;
74293;SDS011;64044;59.904;10.738;2022-12-18T14:43:11;14.23;;;5.18;;
74293;SDS011;64044;59.904;10.738;2022-12-18T14:45:41;10.70;;;6.07;;
74293;SDS011;64044;59.904;10.738;2022-12-18T14:50:37;17.33;;;6.43;;
74293;SDS011;64044;59.904;10.738;2022-12-18T14:53:03;19.30;;;6.90;;
74293;SDS011;64044;59.904;10.738;2022-12-18T14:55:29;16.33;;;7.38;;
74293;SDS011;64044;59.904;10.738;2022-12-18T14:57:55;20.83;;;7.25;;
74293;SDS011;64044;59.904;10.738;2022-12-18T15:00:22;17.20;;;7.40;;
74293;SDS011;64044;59.904;10.738;2022-12-18T15:02:52;18.73;;;7.30;;
74293;SDS011;64044;59.904;10.738;2022-12-18T15:05:24;16.95;;;7.13;;
74293;SDS011;64044;59.904;10.738;2022-12-18T15:07:53;19.20;;;8.00;;
74293;SDS011;64044;59.904;10.738;2022-12-18T15:10:21;18.25;;;7.07;;
74293;SDS011;64044;59.904;10.738;2022-12-18T15:23:05;24.00;;;11.15;;
74293;SDS011;64044;59.904;10.738;2022-12-18T15:25:45;23.10;;;10.13;;
74293;SDS011;64044;59.904;10.738;2022-12-18T15:28:17;19.95;;;9.35;;
74293;SDS011;64044;59.904;10.738;2022-12-18T15:31:20;22.92;;;9.80;;
74293;SDS011;64044;59.904;10.738;2022-12-18T15:36:18;20.90;;;8.63;;
74293;SDS011;64044;59.904;10.738;2022-12-18T15:38:48;16.67;;;8.20;;
74293;SDS011;64044;59.904;10.738;2022-12-18T15:41:15;26.00;;;9.63;;
74293;SDS011;64044;59.904;10.738;2022-12-18T15:43:42;19.85;;;9.45;;
74293;SDS011;64044;59.904;10.738;2022-12-18T15:46:12;27.92;;;11.68;;
74293;SDS011;64044;59.904;10.738;2022-12-18T15:48:44;25.40;;;11.52;;
74293;SDS011;64044;59.904;10.738;2022-12-18T15:53:46;25.95;;;11.32;;
74293;SDS011;64044;59.904;10.738;2022-12-18T15:56:14;27.63;;;12.98;;
74293;SDS011;64044;59.904;10.738;2022-12-18T15:58:59;32.95;;;14.05;;
74293;SDS011;64044;59.904;10.738;2022-12-18T16:01:26;33.15;;;15.43;;
74293;SDS011;64044;59.904;10.738;2022-12-18T16:03:53;29.27;;;13.63;;
74293;SDS011;64044;59.904;10.738;2022-12-18T16:06:19;27.88;;;13.88;;
74293;SDS011;64044;59.904;10.738;2022-12-18T16:08:45;33.85;;;14.65;;
74293;SDS011;64044;59.904;10.738;2022-12-18T16:16:49;32.45;;;14.55;;
74293;SDS011;64044;59.904;10.738;2022-12-18T16:19:16;33.63;;;15.35;;
74293;SDS011;64044;59.904;10.738;2022-12-18T16:21:43;37.25;;;16.50;;
74293;SDS011;64044;59.904;10.738;2022-12-18T16:24:17;35.15;;;16.70;;
74293;SDS011;64044;59.904;10.738;2022-12-18T16:26:44;39.55;;;17.25;;
74293;SDS011;64044;59.904;10.738;2022-12-18T16:29:10;37.05;;;16.75;;
74293;SDS011;64044;59.904;10.738;2022-12-18T16:31:36;45.28;;;17.95;;
74293;SDS011;64044;59.904;10.738;2022-12-18T16:34:22;47.13;;;19.67;;
74293;SDS011;64044;59.904;10.738;2022-12-18T16:36:51;45.40;;;19.80;;
74293;SDS011;64044;59.904;10.738;2022-12-18T16:39:18;61.55;;;23.27;;
74293;SDS011;64044;59.904;10.738;2022-12-18T16:41:44;46.83;;;21.50;;
74293;SDS011;64044;59.904;10.738;2022-12-18T16:44:10;49.42;;;22.65;;
74293;SDS011;64044;59.904;10.738;2022-12-18T16:46:37;52.03;;;24.13;;
74293;SDS011;64044;59.904;10.738;2022-12-18T16:49:03;49.47;;;24.05;;
74293;SDS011;64044;59.904;10.738;2022-12-18T16:51:29;57.35;;;25.55;;
74293;SDS011;64044;59.904;10.738;2022-12-18T16:53:55;56.95;;;25.13;;
74293;SDS011;64044;59.904;10.738;2022-12-18T16:56:21;52.80;;;22.55;;
74293;SDS011;64044;59.904;10.738;2022-12-18T16:58:54;51.30;;;22.77;;
74293;SDS011;64044;59.904;10.738;2022-12-18T17:01:22;53.15;;;22.48;;
74293;SDS011;64044;59.904;10.738;2022-12-18T17:06:18;41.60;;;18.80;;
74293;SDS011;64044;59.904;10.738;2022-12-18T17:08:45;42.92;;;17.88;;
74293;SDS011;64044;59.904;10.738;2022-12-18T17:11:10;41.00;;;18.35;;
74293;SDS011;64044;59.904;10.738;2022-12-18T17:13:36;49.85;;;20.00;;
74293;SDS011;64044;59.904;10.738;2022-12-18T17:16:05;44.85;;;18.83;;
74293;SDS011;64044;59.904;10.738;2022-12-18T17:18:32;40.10;;;19.02;;
74293;SDS011;64044;59.904;10.738;2022-12-18T17:21:01;43.67;;;18.25;;
74293;SDS011;64044;59.904;10.738;2022-12-18T17:23:29;41.90;;;18.30;;
74293;SDS011;64044;59.904;10.738;2022-12-18T17:25:56;39.03;;;18.67;;
74293;SDS011;64044;59.904;10.738;2022-12-18T17:28:23;44.13;;;18.73;;
74293;SDS011;64044;59.904;10.738;2022-12-18T17:30:50;41.47;;;17.50;;
74293;SDS011;64044;59.904;10.738;2022-12-18T17:33:16;37.10;;;16.02;;
74293;SDS011;64044;59.904;10.738;2022-12-18T17:35:42;34.03;;;15.60;;
74293;SDS011;64044;59.904;10.738;2022-12-18T17:38:08;36.28;;;16.25;;
74293;SDS011;64044;59.904;10.738;2022-12-18T17:40:34;40.30;;;20.40;;
74293;SDS011;64044;59.904;10.738;2022-12-18T17:43:00;43.55;;;20.23;;
74293;SDS011;64044;59.904;10.738;2022-12-18T17:45:25;38.10;;;19.13;;
74293;SDS011;64044;59.904;10.738;2022-12-18T17:47:51;36.97;;;17.95;;
74293;SDS011;64044;59.904;10.738;2022-12-18T17:50:16;38.38;;;17.98;;